Terminal Aerodrome Forecast
Issued by NWS Upton, NY

Home | Current Version | Previous Version | Text Only | Print | Product List | Glossary On
Versions: 1 2 3 4 5 6 7 8 9 10 11 12 13 14 15 16 17 18 19 20 21 22 23 24 25 26 27 28 29 30 31 32 33 34 35 36 37 38 39
000
FTUS41 KOKX 261033 AAC
TAFISP
TAF AMD
KISP 261033Z 2611/2706 31015G24KT P6SM SCT150
     FM261800 28018G27KT P6SM BKN050 BKN250
     FM262300 28013G20KT P6SM FEW060
     FM270200 26006KT P6SM SCT250=

USA.gov is the U.S. government's official web portal to all federal, state and local government web resources and services.